Big Trout Lake Airport
CYTL : now visible

Airfield :











YOU CAN JOIN US ON...

 
LOGIN :

Register | Disclaimer

   EN    FR    IT 

 









Legend :    VFR   Marginal VFR   IFR   Intensive IFR   Very Intensive IFR
Visi :
Ceiling :
>= 8 km
>= 3000ft
5 to 8 km
1000 to 3000 ft
1500m to 5 km
500 to 1000 ft
800 to 1500m
200 to 500 ft
< 800m
< 200 ft
Symbols :   Thunderstorms  Fog  Heavy snow  Heavy precipitations  Wind > 20 kt






- Airport Elevation : 729 ft
- IATA code : YTL


CYTL - Big Trout Lake

CURRENT METAR :
  • 281600Z AUTO 34008KT 9SM BKN015 OVC110 13/10 A2980 RMK SLP100 DENSITY ALT 800FT

EXPIRED METARs :
  • 281521Z AUTO 31006KT 270V010 9SM BKN013 13/10 A2979 RMK SLP098 DENSITY ALT 800FT
  • 281446Z AUTO 32005KT 290V010 9SM BKN013 13/10 A2979 RMK SLP096
  • 281400Z AUTO 32007KT 290V010 9SM CLR 12/09 A2978 RMK SLP093

TAF AMD TAF CYTL
Valid from the 28 at 15:00 until the 29 at 02:00 UTC


281508Z 2815/2902 30008KT P6SM FEW012
TEMPO 2815/2818 BKN012
BECMG 2818/2820 BKN060
FM282300 35010G20KT P6SM -SHRA BKN030
FM290100 35010G20KT 5SM -RASN BR OVC010 RMK FCST BASED ON AUTO OBS. NXT FCST BY 282000Z
CZWG FIR / North America



MET'MAP, your aeronautical weather chart ! - Copyright ORBIFLY December 2007 - Disclaimer

ORBIFLY MET'MAP TEAM :

Programming & Development : Alexandra Zaïnal
Concept & original design : Baudouin d'Aumeries
Assistance for programming : Marc-Olivier Méhu
Technical & hardware support : Manuel Goepfert

Contact : metmap@orbifly.com




SOURCES & CREDITS :

   NOAA       Earth
Advisory